createdAt,value
2022-08-09T00:00:46.081Z,0.00
2022-08-09T00:01:43.034Z,0.00
2022-08-09T00:02:49.841Z,0.00
2022-08-09T00:04:05.984Z,0.00
2022-08-09T00:04:43.528Z,0.00
2022-08-09T00:06:16.457Z,0.00
2022-08-09T00:06:44.249Z,0.00
2022-08-09T00:07:44.907Z,0.00
2022-08-09T00:08:42.480Z,0.00
2022-08-09T00:09:42.470Z,0.00
2022-08-09T00:10:42.461Z,0.00
2022-08-09T00:12:02.839Z,0.00
2022-08-09T00:12:43.428Z,0.00
2022-08-09T00:13:42.419Z,0.00
2022-08-09T00:14:42.401Z,0.00
2022-08-09T00:15:59.389Z,0.00
2022-08-09T00:16:43.375Z,0.00
2022-08-09T00:18:07.637Z,0.00
2022-08-09T00:18:43.345Z,0.00
2022-08-09T00:19:42.328Z,0.00
2022-08-09T00:20:49.683Z,0.00
2022-08-09T00:21:56.301Z,0.00
2022-08-09T00:22:47.058Z,0.00
2022-08-09T00:23:57.051Z,0.00
2022-08-09T00:24:43.281Z,0.00
2022-08-09T00:25:42.256Z,0.00
2022-08-09T00:26:42.251Z,0.00
2022-08-09T00:27:43.102Z,0.00
2022-08-09T00:28:42.248Z,0.00
2022-08-09T00:30:23.575Z,0.00
2022-08-09T00:30:43.212Z,0.00
2022-08-09T00:31:58.349Z,0.00
2022-08-09T00:32:43.173Z,0.00
2022-08-09T00:33:50.634Z,0.00
2022-08-09T00:34:51.942Z,0.00
2022-08-09T00:35:43.791Z,0.00
2022-08-09T00:36:42.134Z,0.00
2022-08-09T00:37:42.123Z,0.00
2022-08-09T00:38:42.133Z,0.00
2022-08-09T00:40:12.147Z,0.00
2022-08-09T00:40:52.746Z,0.00
2022-08-09T00:44:14.088Z,0.00
2022-08-09T00:44:19.479Z,0.00
2022-08-09T00:44:19.798Z,0.00
2022-08-09T00:44:43.034Z,0.00
2022-08-09T00:45:50.525Z,0.00
2022-08-09T00:46:57.415Z,0.00
2022-08-09T00:47:43.006Z,0.00
2022-08-09T00:48:42.011Z,0.00
2022-08-09T00:49:43.815Z,0.00
2022-08-09T00:50:42.966Z,0.00
2022-08-09T00:51:54.628Z,0.00
2022-08-09T00:52:42.954Z,0.00
2022-08-09T00:53:41.930Z,0.00
2022-08-09T00:54:41.937Z,0.00
2022-08-09T00:56:05.340Z,0.00
2022-08-09T00:56:42.898Z,0.00
2022-08-09T00:57:41.884Z,0.00
2022-08-09T00:58:41.878Z,0.00
2022-08-09T00:59:46.478Z,0.00
2022-08-09T01:00:41.922Z,0.00
2022-08-09T01:01:44.351Z,0.00
2022-08-09T01:02:41.839Z,0.00
2022-08-09T01:03:46.357Z,0.00
2022-08-09T01:04:41.797Z,0.00
2022-08-09T01:05:46.385Z,0.00
2022-08-09T01:06:54.458Z,0.00
2022-08-09T01:08:00.121Z,0.00
2022-08-09T01:08:49.395Z,0.00
2022-08-09T01:09:42.739Z,0.00
2022-08-09T01:10:41.770Z,0.00
2022-08-09T01:11:41.724Z,0.00
2022-08-09T01:12:42.717Z,0.00
2022-08-09T01:13:58.850Z,0.00
2022-08-09T01:14:42.689Z,0.00
2022-08-09T01:15:52.033Z,0.00
2022-08-09T01:16:47.296Z,0.00
2022-08-09T01:17:42.659Z,0.00
2022-08-09T01:18:41.649Z,0.00
2022-08-09T01:20:01.703Z,0.00
2022-08-09T01:20:42.618Z,0.00
2022-08-09T01:21:45.068Z,0.00
2022-08-09T01:22:42.603Z,0.00
2022-08-09T01:24:02.180Z,0.00
2022-08-09T01:24:43.967Z,0.00
2022-08-09T01:25:42.561Z,0.00
2022-08-09T01:26:42.571Z,0.00
2022-08-09T01:27:41.531Z,0.00
2022-08-09T01:28:41.536Z,0.00
2022-08-09T01:29:55.136Z,0.00
2022-08-09T01:30:51.572Z,0.00
2022-08-09T01:32:29.782Z,0.00
2022-08-09T01:32:45.392Z,0.00
2022-08-09T01:33:41.483Z,0.00
2022-08-09T01:34:41.468Z,0.00
2022-08-09T01:35:42.392Z,0.00
2022-08-09T01:36:41.440Z,0.00
2022-08-09T01:37:42.822Z,0.00
2022-08-09T01:38:46.417Z,0.00
2022-08-09T01:39:41.459Z,0.00
2022-08-09T01:40:41.389Z,0.00
2022-08-09T01:41:53.791Z,0.00
2022-08-09T01:42:42.383Z,0.00
2022-08-09T01:43:50.042Z,0.00
2022-08-09T01:44:42.347Z,0.00
2022-08-09T01:45:45.985Z,0.00
2022-08-09T01:46:42.391Z,0.00
2022-08-09T01:47:44.507Z,0.00
2022-08-09T01:48:41.316Z,0.00
2022-08-09T01:49:41.280Z,0.00
2022-08-09T01:50:42.274Z,0.00
2022-08-09T01:51:44.377Z,0.00
2022-08-09T01:52:41.491Z,0.00
2022-08-09T01:53:41.904Z,0.00
2022-08-09T01:54:41.246Z,0.00
2022-08-09T01:55:41.217Z,0.00
2022-08-09T01:56:41.204Z,0.00
2022-08-09T01:57:45.720Z,0.00
2022-08-09T01:58:42.199Z,0.00
2022-08-09T01:59:51.733Z,0.00
2022-08-09T02:00:42.231Z,0.00
2022-08-09T02:01:59.208Z,0.00
2022-08-09T02:02:42.127Z,0.00
2022-08-09T02:03:41.139Z,0.00
2022-08-09T02:04:45.541Z,0.00
2022-08-09T02:06:03.285Z,0.00
2022-08-09T02:06:45.311Z,0.00
2022-08-09T02:08:38.849Z,0.00
2022-08-09T02:08:58.807Z,0.00
2022-08-09T02:09:42.883Z,0.00
2022-08-09T02:10:41.054Z,0.00
2022-08-09T02:11:43.784Z,0.00
2022-08-09T02:12:41.025Z,0.00
2022-08-09T02:13:41.016Z,0.00
2022-08-09T02:14:41.008Z,0.00
2022-08-09T02:15:49.283Z,0.00
2022-08-09T02:16:52.972Z,0.00
2022-08-09T02:18:00.292Z,0.00
2022-08-09T02:18:42.773Z,0.00
2022-08-09T02:19:43.347Z,0.00
2022-08-09T02:20:40.917Z,0.00
2022-08-09T02:21:40.920Z,0.00
2022-08-09T02:22:41.057Z,0.00
2022-08-09T02:23:43.116Z,0.00
2022-08-09T02:24:40.878Z,0.00
2022-08-09T02:25:42.018Z,0.00
2022-08-09T02:26:40.861Z,0.00
2022-08-09T02:27:57.486Z,0.00
2022-08-09T02:28:41.819Z,0.00
2022-08-09T02:29:40.811Z,0.00
2022-08-09T02:30:41.494Z,0.00
2022-08-09T02:31:40.809Z,0.00
2022-08-09T02:32:40.793Z,0.00
2022-08-09T02:34:07.276Z,0.00
2022-08-09T02:34:51.651Z,0.00
2022-08-09T02:36:02.119Z,0.00
2022-08-09T02:36:42.086Z,0.00
2022-08-09T02:37:40.720Z,0.00
2022-08-09T02:38:40.713Z,0.00
2022-08-09T02:39:42.846Z,0.00
2022-08-09T02:40:40.711Z,0.00
2022-08-09T02:41:40.687Z,0.00
2022-08-09T02:42:40.684Z,0.00
2022-08-09T02:43:42.565Z,0.00
2022-08-09T02:44:41.640Z,0.00
2022-08-09T02:45:40.634Z,0.00
2022-08-09T02:46:40.616Z,0.00
2022-08-09T02:47:57.326Z,0.00
2022-08-09T02:48:46.117Z,0.00
2022-08-09T02:49:41.323Z,0.00
2022-08-09T02:50:40.571Z,0.00
2022-08-09T02:51:40.869Z,0.00
2022-08-09T02:52:40.553Z,0.00
2022-08-09T02:53:43.122Z,0.00
2022-08-09T02:54:54.537Z,0.00
2022-08-09T02:55:53.775Z,0.00
2022-08-09T02:56:41.494Z,0.00
2022-08-09T02:58:00.310Z,0.00
2022-08-09T02:58:41.475Z,0.00
2022-08-09T02:59:40.464Z,0.00
2022-08-09T03:00:57.731Z,0.00
2022-08-09T03:02:05.745Z,0.00
2022-08-09T03:02:58.333Z,0.00
2022-08-09T03:04:17.415Z,0.00
2022-08-09T03:04:41.402Z,0.00
2022-08-09T03:05:40.413Z,0.00
2022-08-09T03:06:40.386Z,0.00
2022-08-09T03:07:40.366Z,0.00
2022-08-09T03:08:40.384Z,0.00
2022-08-09T03:09:42.816Z,0.00
2022-08-09T03:10:40.336Z,0.00
2022-08-09T03:12:10.443Z,0.00
2022-08-09T03:12:41.306Z,0.00
2022-08-09T03:13:43.805Z,0.00
2022-08-09T03:14:41.318Z,0.00
2022-08-09T03:16:05.763Z,0.00
2022-08-09T03:16:47.496Z,0.00
2022-08-09T03:17:41.247Z,0.00
2022-08-09T03:18:40.235Z,0.00
2022-08-09T03:19:59.711Z,0.00
2022-08-09T03:20:41.216Z,0.00
2022-08-09T03:21:40.199Z,0.00
2022-08-09T03:22:42.280Z,0.00
2022-08-09T03:23:40.179Z,0.00
2022-08-09T03:24:51.087Z,0.00
2022-08-09T03:26:03.234Z,0.00
2022-08-09T03:26:44.966Z,0.00
2022-08-09T03:27:45.209Z,0.00
2022-08-09T03:28:43.597Z,0.00
2022-08-09T03:29:57.373Z,0.00
2022-08-09T03:30:41.108Z,0.00
2022-08-09T03:31:42.697Z,0.00
2022-08-09T03:32:41.071Z,0.00
2022-08-09T03:33:53.429Z,0.00
2022-08-09T03:34:41.079Z,0.00
2022-08-09T03:36:11.761Z,0.00
2022-08-09T03:36:41.036Z,0.00
2022-08-09T03:37:56.662Z,0.00
2022-08-09T03:38:41.874Z,4.00
2022-08-09T03:39:40.051Z,0.00
2022-08-09T03:40:41.003Z,0.00
2022-08-09T03:41:45.898Z,4.00
2022-08-09T03:42:43.166Z,4.00
2022-08-09T03:43:39.969Z,0.00
2022-08-09T03:44:39.935Z,4.00
2022-08-09T03:46:05.254Z,0.00
2022-08-09T03:46:40.902Z,4.00
2022-08-09T03:47:46.261Z,4.00
2022-08-09T03:48:42.944Z,4.00
2022-08-09T03:49:40.869Z,8.00
2022-08-09T03:50:41.130Z,8.00
2022-08-09T03:51:55.588Z,8.00
2022-08-09T03:52:41.759Z,8.00
2022-08-09T03:53:39.841Z,12.00
2022-08-09T03:54:39.812Z,12.00
2022-08-09T03:55:40.722Z,12.00
2022-08-09T03:56:41.103Z,12.00
2022-08-09T03:57:53.409Z,16.00
2022-08-09T03:58:40.762Z,16.00
2022-08-09T03:59:43.256Z,20.00
2022-08-09T04:00:40.767Z,20.00
2022-08-09T04:01:39.738Z,24.00
2022-08-09T04:02:39.722Z,28.00
2022-08-09T04:03:46.189Z,28.00
2022-08-09T04:04:40.712Z,32.00
2022-08-09T04:05:40.734Z,36.00
2022-08-09T04:06:39.671Z,40.00
2022-08-09T04:07:52.640Z,44.00
2022-08-09T04:08:40.674Z,48.00
2022-08-09T04:09:44.416Z,52.00
2022-08-09T04:10:40.647Z,52.00
2022-08-09T04:11:39.613Z,60.00
2022-08-09T04:12:39.603Z,64.00
2022-08-09T04:14:36.666Z,68.00
2022-08-09T04:15:00.948Z,76.00
2022-08-09T04:16:17.623Z,84.00
2022-08-09T04:16:40.558Z,88.00
2022-08-09T04:17:39.562Z,92.00
2022-08-09T04:18:39.536Z,100.00
2022-08-09T04:19:50.837Z,108.00
2022-08-09T04:20:40.518Z,112.00
2022-08-09T04:21:40.279Z,120.00
2022-08-09T04:22:41.264Z,128.00
2022-08-09T04:23:39.473Z,136.00
2022-08-09T04:24:39.460Z,144.00
2022-08-09T04:25:39.449Z,152.00
2022-08-09T04:26:39.490Z,160.00
2022-08-09T04:27:39.419Z,168.00
2022-08-09T04:28:42.334Z,176.00
2022-08-09T04:29:40.411Z,180.00
2022-08-09T04:30:42.758Z,188.00
2022-08-09T04:31:46.685Z,200.00
2022-08-09T04:32:40.546Z,208.00
2022-08-09T04:33:53.144Z,220.00
2022-08-09T04:34:40.356Z,228.00
2022-08-09T04:35:40.338Z,236.00
2022-08-09T04:36:42.436Z,244.00
2022-08-09T04:37:45.789Z,256.00
2022-08-09T04:38:40.291Z,268.00
2022-08-09T04:39:40.723Z,276.00
2022-08-09T04:40:39.300Z,288.00
2022-08-09T04:41:43.830Z,296.00
2022-08-09T04:42:39.250Z,304.00
2022-08-09T04:43:53.966Z,316.00
2022-08-09T04:44:40.221Z,328.00
2022-08-09T04:45:53.593Z,336.00
2022-08-09T04:46:57.374Z,348.00
2022-08-09T04:47:58.778Z,356.00
2022-08-09T04:48:40.172Z,372.00
2022-08-09T04:49:53.072Z,400.00
2022-08-09T04:50:40.156Z,420.00
2022-08-09T04:51:39.159Z,436.00
2022-08-09T04:52:39.132Z,448.00
2022-08-09T04:53:39.111Z,460.00
2022-08-09T04:54:39.109Z,480.00
2022-08-09T04:55:43.601Z,496.00
2022-08-09T04:56:40.101Z,516.00
2022-08-09T04:57:53.737Z,540.00
2022-08-09T04:58:40.058Z,572.00
2022-08-09T04:59:39.053Z,600.00
2022-08-09T05:00:39.020Z,632.00
2022-08-09T05:01:39.027Z,664.00
2022-08-09T05:02:39.021Z,696.00
2022-08-09T05:03:42.260Z,728.00
2022-08-09T05:04:40.051Z,788.00
2022-08-09T05:05:51.782Z,892.00
2022-08-09T05:06:39.966Z,1032.00
2022-08-09T05:07:38.973Z,1200.00
2022-08-09T05:08:38.939Z,1392.00
2022-08-09T05:09:42.203Z,1600.00
2022-08-09T05:10:39.931Z,1828.00
2022-08-09T05:11:38.915Z,2052.00
2022-08-09T05:12:39.010Z,2280.00
2022-08-09T05:13:39.198Z,2492.00
2022-08-09T05:14:38.868Z,2700.00
2022-08-09T05:15:47.705Z,2952.00
2022-08-09T05:16:43.424Z,4044.00
2022-08-09T05:18:42.521Z,5104.00
2022-08-09T05:18:58.577Z,5028.00
2022-08-09T05:19:45.996Z,4456.00
2022-08-09T05:20:39.807Z,3992.00
2022-08-09T05:21:46.970Z,4024.00
2022-08-09T05:23:53.597Z,4204.00
2022-08-09T05:23:53.658Z,4424.00
2022-08-09T05:24:39.759Z,4540.00
2022-08-09T05:25:38.743Z,4688.00
2022-08-09T05:26:46.239Z,4812.00
2022-08-09T05:27:45.423Z,5616.00
2022-08-09T05:28:39.722Z,6580.00
2022-08-09T05:29:38.697Z,6736.00
2022-08-09T05:30:38.677Z,6708.00
2022-08-09T05:31:46.779Z,6180.00
2022-08-09T05:32:39.643Z,5504.00
2022-08-09T05:33:42.473Z,5308.00
2022-08-09T05:34:38.631Z,5484.00
2022-08-09T05:35:49.895Z,5560.00
2022-08-09T05:36:39.609Z,5548.00
2022-08-09T05:37:47.649Z,5464.00
2022-08-09T05:38:39.608Z,5600.00
2022-08-09T05:39:43.775Z,6152.00
2022-08-09T05:40:38.563Z,7372.00
2022-08-09T05:41:38.551Z,7444.00
2022-08-09T05:42:38.543Z,6864.00
2022-08-09T05:43:38.540Z,6592.00
2022-08-09T05:44:39.521Z,6380.00
2022-08-09T05:45:52.773Z,5656.00
2022-08-09T05:46:39.501Z,5004.00
2022-08-09T05:47:45.553Z,4940.00
2022-08-09T05:48:39.485Z,5332.00
2022-08-09T05:50:30.348Z,5476.00
2022-08-09T05:50:51.202Z,5176.00
2022-08-09T05:51:43.226Z,5028.00
2022-08-09T05:52:39.426Z,5008.00
2022-08-09T05:53:51.629Z,5048.00
2022-08-09T05:54:39.402Z,5100.00
2022-08-09T05:55:38.398Z,5120.00
2022-08-09T05:56:38.383Z,5184.00
2022-08-09T05:57:51.037Z,5296.00
2022-08-09T05:58:39.364Z,5396.00
2022-08-09T05:59:38.352Z,5536.00
2022-08-09T06:00:38.325Z,5664.00
2022-08-09T06:01:42.652Z,5760.00
2022-08-09T06:02:38.350Z,5900.00
2022-08-09T06:03:44.057Z,6088.00
2022-08-09T06:04:44.760Z,6224.00
2022-08-09T06:05:54.672Z,6340.00
2022-08-09T06:06:41.683Z,6300.00
2022-08-09T06:07:39.248Z,6140.00
2022-08-09T06:08:38.267Z,5992.00
2022-08-09T06:09:54.306Z,5940.00
2022-08-09T06:10:39.204Z,5932.00
2022-08-09T06:11:41.068Z,6024.00
2022-08-09T06:12:39.197Z,6100.00
2022-08-09T06:13:38.205Z,6196.00
2022-08-09T06:14:38.166Z,6300.00
2022-08-09T06:15:38.167Z,6264.00
2022-08-09T06:16:38.147Z,6300.00
2022-08-09T06:17:39.928Z,6476.00
2022-08-09T06:18:38.147Z,6776.00
2022-08-09T06:19:38.123Z,6928.00
2022-08-09T06:20:38.111Z,7152.00
2022-08-09T06:21:39.661Z,6892.00
2022-08-09T06:22:39.080Z,8008.00
2022-08-09T06:23:57.387Z,7928.00
2022-08-09T06:24:39.069Z,7492.00
2022-08-09T06:25:38.046Z,7360.00
2022-08-09T06:26:38.028Z,7288.00
2022-08-09T06:27:42.239Z,7268.00
2022-08-09T06:28:38.026Z,7300.00
2022-08-09T06:29:48.170Z,7216.00
2022-08-09T06:30:38.982Z,7064.00
2022-08-09T06:31:39.235Z,6820.00
2022-08-09T06:32:59.428Z,6620.00
2022-08-09T06:33:41.304Z,6164.00
2022-08-09T06:34:37.950Z,5820.00
2022-08-09T06:35:56.783Z,5432.00
2022-08-09T06:36:43.878Z,5372.00
2022-08-09T06:37:53.115Z,5464.00
2022-08-09T06:38:38.898Z,5732.00
2022-08-09T06:39:57.861Z,5820.00
2022-08-09T06:40:38.927Z,5972.00
2022-08-09T06:42:07.714Z,6172.00
2022-08-09T06:42:45.135Z,6432.00
2022-08-09T06:43:39.744Z,6732.00
2022-08-09T06:44:37.900Z,7136.00
2022-08-09T06:46:06.666Z,8076.00
2022-08-09T06:46:40.219Z,9008.00
2022-08-09T06:47:39.771Z,11344.00
2022-08-09T06:48:42.698Z,13244.00
2022-08-09T06:50:11.935Z,14784.00
2022-08-09T06:50:38.782Z,15104.00
2022-08-09T06:51:39.076Z,16256.00
2022-08-09T06:52:37.737Z,15456.00
2022-08-09T06:53:38.187Z,12324.00
2022-08-09T06:54:37.726Z,12468.00
2022-08-09T06:55:37.707Z,11016.00
2022-08-09T06:56:37.687Z,8264.00
2022-08-09T06:58:01.507Z,7792.00
2022-08-09T07:00:47.384Z,8428.00
2022-08-09T07:00:49.734Z,7508.00
2022-08-09T07:00:50.843Z,12104.00
2022-08-09T07:01:54.610Z,8224.00
2022-08-09T07:02:38.691Z,7628.00
2022-08-09T07:03:39.710Z,8388.00
2022-08-09T07:04:38.590Z,10096.00
2022-08-09T07:06:02.638Z,17920.00
2022-08-09T07:06:38.590Z,15520.00
2022-08-09T07:08:00.694Z,3284.00
2022-08-09T07:08:39.622Z,8948.00
2022-08-09T07:09:57.374Z,11380.00
2022-08-09T07:10:38.552Z,13408.00
2022-08-09T07:11:45.461Z,15360.00
2022-08-09T07:12:41.275Z,15808.00
2022-08-09T07:13:45.217Z,11160.00
2022-08-09T07:14:38.482Z,5648.00
2022-08-09T07:16:38.506Z,5360.00
2022-08-09T07:16:42.610Z,5488.00
2022-08-09T07:17:39.822Z,5300.00
2022-08-09T07:18:38.705Z,5052.00
2022-08-09T07:19:37.433Z,5032.00
2022-08-09T07:20:39.568Z,4920.00
2022-08-09T07:21:38.418Z,4788.00
2022-08-09T07:22:42.112Z,4712.00
2022-08-09T07:23:56.663Z,4740.00
2022-08-09T07:24:40.113Z,4624.00
2022-08-09T07:25:38.917Z,4608.00
2022-08-09T07:26:38.358Z,4572.00
2022-08-09T07:27:42.959Z,4448.00
2022-08-09T07:28:38.327Z,4384.00
2022-08-09T07:29:42.966Z,4284.00
2022-08-09T07:30:37.306Z,4120.00
2022-08-09T07:31:38.597Z,3936.00
2022-08-09T07:32:38.471Z,3912.00
2022-08-09T07:33:52.920Z,3900.00
2022-08-09T07:34:38.275Z,3644.00
2022-08-09T07:35:39.679Z,3656.00
2022-08-09T07:36:38.228Z,3660.00
2022-08-09T07:37:43.215Z,3596.00
2022-08-09T07:38:38.208Z,3504.00
2022-08-09T07:39:41.040Z,3476.00
2022-08-09T07:41:00.908Z,3348.00
2022-08-09T07:41:38.603Z,3268.00
2022-08-09T07:42:37.170Z,3220.00
2022-08-09T07:43:41.150Z,3168.00
2022-08-09T07:44:53.117Z,3152.00
2022-08-09T07:45:40.559Z,3132.00
2022-08-09T07:46:37.112Z,3120.00
2022-08-09T07:47:39.575Z,3108.00
2022-08-09T07:48:39.158Z,3196.00
2022-08-09T07:50:04.501Z,6660.00
2022-08-09T07:50:38.073Z,8960.00
2022-08-09T07:52:05.448Z,3176.00
2022-08-09T07:52:38.048Z,3164.00
2022-08-09T07:54:07.594Z,3848.00
2022-08-09T07:54:38.027Z,3216.00
2022-08-09T07:55:41.340Z,3016.00
2022-08-09T07:56:45.018Z,2948.00
2022-08-09T07:57:37.999Z,2912.00
2022-08-09T07:58:38.004Z,2924.00
2022-08-09T07:59:51.924Z,3252.00
2022-08-09T08:00:38.106Z,3192.00
2022-08-09T08:01:38.003Z,3360.00
2022-08-09T08:02:42.405Z,3408.00
2022-08-09T08:03:37.915Z,3356.00
2022-08-09T08:04:37.332Z,3188.00
2022-08-09T08:05:39.149Z,3440.00
2022-08-09T08:06:47.571Z,3248.00
2022-08-09T08:08:44.478Z,3380.00
2022-08-09T08:09:02.258Z,3200.00
2022-08-09T08:09:38.664Z,3440.00
2022-08-09T08:10:37.851Z,3376.00
2022-08-09T08:12:12.018Z,3296.00
2022-08-09T08:12:43.384Z,3056.00
2022-08-09T08:13:41.297Z,2944.00
2022-08-09T08:14:37.809Z,2848.00
2022-08-09T08:15:39.296Z,2716.00
2022-08-09T08:16:36.806Z,2628.00
2022-08-09T08:17:53.090Z,2580.00
2022-08-09T08:18:37.749Z,2556.00
2022-08-09T08:19:36.749Z,2552.00
2022-08-09T08:20:36.738Z,2536.00
2022-08-09T08:21:39.460Z,2532.00
2022-08-09T08:22:36.701Z,2516.00
2022-08-09T08:23:36.692Z,2508.00
2022-08-09T08:24:40.622Z,2492.00
2022-08-09T08:25:40.425Z,2492.00
2022-08-09T08:26:42.119Z,2480.00
2022-08-09T08:27:40.444Z,2480.00
2022-08-09T08:28:36.634Z,2472.00
2022-08-09T08:29:39.574Z,2464.00
2022-08-09T08:30:39.053Z,2460.00
2022-08-09T08:31:39.615Z,2440.00
2022-08-09T08:32:41.474Z,2444.00
2022-08-09T08:33:52.094Z,2432.00
2022-08-09T08:34:37.570Z,2432.00
2022-08-09T08:35:52.910Z,2420.00
2022-08-09T08:36:37.565Z,2348.00
2022-08-09T08:37:41.467Z,2396.00
2022-08-09T08:38:37.525Z,2404.00
2022-08-09T08:39:39.829Z,2404.00
2022-08-09T08:40:37.496Z,2384.00
2022-08-09T08:41:50.714Z,2372.00
2022-08-09T08:42:37.479Z,2380.00
2022-08-09T08:43:36.460Z,2372.00
2022-08-09T08:44:36.447Z,2372.00
2022-08-09T08:45:37.629Z,2352.00
2022-08-09T08:46:59.814Z,2340.00
2022-08-09T08:47:38.526Z,2324.00
2022-08-09T08:48:37.415Z,2328.00
2022-08-09T08:49:47.388Z,2316.00
2022-08-09T08:50:37.381Z,2308.00
2022-08-09T08:51:40.246Z,2304.00
2022-08-09T08:52:59.142Z,2304.00
2022-08-09T08:53:37.551Z,2296.00
2022-08-09T08:54:37.335Z,2292.00
2022-08-09T08:55:36.321Z,2276.00
2022-08-09T08:56:36.370Z,2280.00
2022-08-09T08:57:37.553Z,2252.00
2022-08-09T08:58:36.290Z,2248.00
2022-08-09T08:59:46.626Z,2252.00
2022-08-09T09:00:37.276Z,2220.00
2022-08-09T09:01:51.917Z,2220.00
2022-08-09T09:02:37.455Z,2216.00
2022-08-09T09:03:37.965Z,2208.00
2022-08-09T09:04:47.429Z,2204.00
2022-08-09T09:05:58.767Z,2188.00
2022-08-09T09:06:37.207Z,2172.00
2022-08-09T09:07:36.763Z,2176.00
2022-08-09T09:08:40.962Z,2148.00
2022-08-09T09:09:58.443Z,2164.00
2022-08-09T09:10:37.175Z,2144.00
2022-08-09T09:11:38.486Z,2136.00
2022-08-09T09:12:36.326Z,2140.00
2022-08-09T09:13:50.250Z,2120.00
2022-08-09T09:14:37.121Z,2108.00
2022-08-09T09:15:36.100Z,2092.00
2022-08-09T09:16:36.112Z,2088.00
2022-08-09T09:17:49.363Z,2084.00
2022-08-09T09:18:37.088Z,2056.00
2022-08-09T09:19:41.271Z,2060.00
2022-08-09T09:20:37.044Z,2044.00
2022-08-09T09:21:43.297Z,2024.00
2022-08-09T09:22:37.270Z,2032.00
2022-08-09T09:23:37.978Z,2000.00
2022-08-09T09:24:38.017Z,2024.00
2022-08-09T09:26:01.189Z,1996.00
2022-08-09T09:26:36.969Z,1988.00
2022-08-09T09:28:06.626Z,1984.00
2022-08-09T09:29:02.497Z,1976.00
2022-08-09T09:30:08.480Z,1968.00
2022-08-09T09:30:41.334Z,1948.00
2022-08-09T09:32:03.571Z,1944.00
2022-08-09T09:32:37.171Z,1924.00
2022-08-09T09:33:44.352Z,1924.00
2022-08-09T09:34:36.881Z,1904.00
2022-08-09T09:35:35.873Z,1896.00
2022-08-09T09:36:35.861Z,1888.00
2022-08-09T09:37:35.842Z,1888.00
2022-08-09T09:38:36.676Z,1884.00
2022-08-09T09:39:42.767Z,1872.00
2022-08-09T09:40:36.857Z,1864.00
2022-08-09T09:41:49.716Z,1856.00
2022-08-09T09:42:36.908Z,1824.00
2022-08-09T09:43:41.206Z,1840.00
2022-08-09T09:44:36.893Z,1836.00
2022-08-09T09:45:57.052Z,1832.00
2022-08-09T09:46:42.613Z,1820.00
2022-08-09T09:47:47.897Z,1796.00
2022-08-09T09:48:36.714Z,1788.00
2022-08-09T09:50:13.717Z,1804.00
2022-08-09T09:50:36.719Z,1788.00
2022-08-09T09:51:38.391Z,1780.00
2022-08-09T09:52:37.326Z,1776.00
2022-08-09T09:53:57.542Z,1760.00
2022-08-09T09:54:36.653Z,1756.00
2022-08-09T09:55:35.658Z,1744.00
2022-08-09T09:56:35.630Z,1744.00
2022-08-09T09:58:02.411Z,1736.00
2022-08-09T09:58:37.316Z,1732.00
2022-08-09T09:59:35.824Z,1724.00
2022-08-09T10:00:35.627Z,1728.00
2022-08-09T10:01:37.980Z,1700.00
2022-08-09T10:02:35.573Z,1696.00
2022-08-09T10:03:35.590Z,1700.00
2022-08-09T10:04:35.558Z,1696.00
2022-08-09T10:06:03.310Z,1684.00
2022-08-09T10:06:36.540Z,1680.00
2022-08-09T10:07:35.500Z,1680.00
2022-08-09T10:08:43.276Z,1672.00
2022-08-09T10:09:36.468Z,1652.00
2022-08-09T10:10:35.489Z,1660.00
2022-08-09T10:12:00.243Z,1664.00
2022-08-09T10:12:36.451Z,1668.00
2022-08-09T10:13:43.105Z,1676.00
2022-08-09T10:14:36.430Z,1668.00
2022-08-09T10:16:09.175Z,1640.00
2022-08-09T10:16:58.346Z,1604.00
2022-08-09T10:17:55.151Z,1580.00
2022-08-09T10:18:36.386Z,1556.00
2022-08-09T10:19:35.372Z,1536.00
2022-08-09T10:20:44.555Z,1524.00
2022-08-09T10:21:36.342Z,1512.00
2022-08-09T10:22:35.430Z,1508.00
2022-08-09T10:23:35.314Z,1496.00
2022-08-09T10:24:35.960Z,1480.00
2022-08-09T10:26:07.374Z,1472.00
2022-08-09T10:26:36.280Z,1468.00
2022-08-09T10:27:38.574Z,1464.00
2022-08-09T10:28:36.275Z,1456.00
2022-08-09T10:30:49.490Z,1444.00
2022-08-09T10:32:40.351Z,1420.00
2022-08-09T10:34:09.005Z,1420.00
2022-08-09T10:34:36.289Z,1404.00
2022-08-09T10:35:35.189Z,1392.00
2022-08-09T10:36:35.528Z,1392.00
2022-08-09T10:37:38.351Z,1384.00
2022-08-09T10:38:54.995Z,1380.00
2022-08-09T10:39:40.952Z,1372.00
2022-08-09T10:40:40.970Z,1368.00
2022-08-09T10:41:36.118Z,1360.00
2022-08-09T10:42:35.126Z,1352.00
2022-08-09T10:43:44.408Z,1340.00
2022-08-09T10:44:36.101Z,1328.00
2022-08-09T10:45:35.644Z,1320.00
2022-08-09T10:46:43.552Z,1308.00
2022-08-09T10:48:19.450Z,1296.00
2022-08-09T10:48:36.773Z,1292.00
2022-08-09T10:49:50.211Z,1276.00
2022-08-09T10:50:36.020Z,1272.00
2022-08-09T10:51:41.001Z,1264.00
2022-08-09T10:52:36.475Z,1248.00
2022-08-09T10:53:38.070Z,1244.00
2022-08-09T10:54:35.001Z,1236.00
2022-08-09T10:55:49.202Z,1228.00
2022-08-09T10:56:35.958Z,1224.00
2022-08-09T10:57:36.283Z,1188.00
2022-08-09T10:58:37.319Z,1204.00
2022-08-09T10:59:55.417Z,1196.00
2022-08-09T11:00:35.922Z,1176.00
2022-08-09T11:03:10.673Z,1180.00
2022-08-09T11:03:13.309Z,1168.00
2022-08-09T11:03:49.795Z,1156.00
2022-08-09T11:04:35.953Z,1144.00
2022-08-09T11:05:34.923Z,1136.00
2022-08-09T11:06:34.837Z,1136.00
2022-08-09T11:07:57.121Z,1120.00
2022-08-09T11:08:35.819Z,1120.00
2022-08-09T11:09:37.343Z,1112.00
2022-08-09T11:10:34.800Z,1100.00
2022-08-09T11:11:34.807Z,1088.00
2022-08-09T11:12:36.315Z,1076.00
2022-08-09T11:13:50.085Z,1084.00
2022-08-09T11:14:35.762Z,1072.00
2022-08-09T11:15:38.351Z,1068.00
2022-08-09T11:16:37.120Z,1060.00
2022-08-09T11:17:34.717Z,1056.00
2022-08-09T11:18:35.710Z,1056.00
2022-08-09T11:20:10.599Z,1048.00
2022-08-09T11:20:35.690Z,1032.00
2022-08-09T11:21:34.682Z,1028.00
2022-08-09T11:22:35.982Z,1024.00
2022-08-09T11:23:34.650Z,1012.00
2022-08-09T11:24:34.643Z,1028.00
2022-08-09T11:25:44.633Z,1024.00
2022-08-09T11:26:35.623Z,1016.00
2022-08-09T11:28:03.222Z,1012.00
2022-08-09T11:28:38.686Z,1004.00
2022-08-09T11:30:01.164Z,1000.00
2022-08-09T11:30:36.380Z,996.00
2022-08-09T11:31:36.781Z,992.00
2022-08-09T11:32:34.634Z,976.00
2022-08-09T11:33:34.543Z,972.00
2022-08-09T11:34:34.944Z,976.00
2022-08-09T11:35:35.247Z,964.00
2022-08-09T11:36:36.834Z,972.00
2022-08-09T11:37:41.412Z,960.00
2022-08-09T11:38:35.502Z,960.00
2022-08-09T11:39:38.562Z,960.00
2022-08-09T11:40:34.464Z,952.00
2022-08-09T11:41:37.500Z,956.00
2022-08-09T11:42:34.816Z,956.00
2022-08-09T11:43:34.428Z,952.00
2022-08-09T11:44:34.445Z,944.00
2022-08-09T11:45:42.802Z,948.00
2022-08-09T11:46:35.390Z,944.00
2022-08-09T11:47:35.087Z,932.00
2022-08-09T11:48:36.009Z,932.00
2022-08-09T11:49:42.698Z,932.00
2022-08-09T11:50:52.956Z,932.00
2022-08-09T11:52:49.441Z,928.00
2022-08-09T11:53:11.422Z,924.00
2022-08-09T11:53:58.485Z,912.00
2022-08-09T11:54:35.569Z,924.00
2022-08-09T11:55:51.469Z,916.00
2022-08-09T11:56:42.437Z,912.00
2022-08-09T11:57:47.535Z,904.00
2022-08-09T11:58:35.272Z,892.00
2022-08-09T11:59:34.266Z,888.00
2022-08-09T12:00:34.233Z,876.00
2022-08-09T12:01:37.698Z,884.00
2022-08-09T12:02:39.715Z,884.00
2022-08-09T12:03:55.351Z,888.00
2022-08-09T12:04:37.562Z,888.00
2022-08-09T12:05:37.905Z,888.00
2022-08-09T12:06:35.478Z,892.00
2022-08-09T12:07:41.477Z,896.00
2022-08-09T12:08:35.144Z,888.00
2022-08-09T12:09:34.221Z,880.00
2022-08-09T12:10:39.340Z,876.00
2022-08-09T12:11:44.685Z,868.00
2022-08-09T12:12:35.102Z,868.00
2022-08-09T12:14:08.351Z,864.00
2022-08-09T12:14:37.183Z,868.00
2022-08-09T12:15:50.107Z,868.00
2022-08-09T12:16:38.118Z,876.00
2022-08-09T12:17:44.526Z,888.00
2022-08-09T12:18:35.034Z,896.00
2022-08-09T12:19:34.036Z,892.00
2022-08-09T12:20:34.037Z,880.00
2022-08-09T12:21:38.678Z,880.00
2022-08-09T12:22:35.184Z,876.00
2022-08-09T12:23:58.678Z,872.00
2022-08-09T12:24:35.023Z,872.00
2022-08-09T12:25:37.322Z,872.00
2022-08-09T12:26:33.958Z,872.00
2022-08-09T12:29:09.880Z,888.00
2022-08-09T12:29:13.078Z,884.00
2022-08-09T12:29:51.482Z,888.00
2022-08-09T12:30:38.672Z,892.00
2022-08-09T12:31:58.554Z,900.00
2022-08-09T12:32:35.125Z,912.00
2022-08-09T12:33:51.355Z,916.00